Time;durP1;ratioP1;P1;durP2;ratioP2;P2;SDS_P1;SDS_P2;PMS_P1;PMS_P2;Temp;Humidity;BMP_temperature;BMP_pressure;BME280_temperature;BME280_humidity;BME280_pressure;Samples;Min_cycle;Max_cycle;Signal;HPM_P1;HPM_P2
2023/04/19 00:00:39;;;;;;;24.50;15.53;;;12.00;1.00;;;;;;5046569;28;20679;-83
2023/04/19 00:03:08;;;;;;;17.83;15.87;;;12.00;1.00;;;;;;5071565;28;20259;-83
2023/04/19 00:05:37;;;;;;;20.73;17.43;;;12.00;1.00;;;;;;5044865;28;20440;-82
2023/04/19 00:08:07;;;;;;;19.97;17.23;;;12.00;1.00;;;;;;5057104;28;20432;-80
2023/04/19 00:10:37;;;;;;;19.90;16.20;;;12.00;1.00;;;;;;5053010;28;20454;-85
2023/04/19 00:13:03;;;;;;;21.07;16.97;;;12.00;1.00;;;;;;5048021;28;20467;-83
2023/04/19 00:15:29;;;;;;;19.70;17.20;;;12.00;1.00;;;;;;5043678;28;20452;-84
2023/04/19 00:17:55;;;;;;;20.90;18.00;;;12.00;1.00;;;;;;5048310;28;20253;-83
2023/04/19 00:20:21;;;;;;;19.20;15.83;;;12.00;1.00;;;;;;5056695;28;20229;-83
2023/04/19 00:22:46;;;;;;;20.37;17.33;;;12.00;1.00;;;;;;5055143;28;20452;-84
2023/04/19 00:25:14;;;;;;;25.67;16.33;;;11.90;1.00;;;;;;5055657;28;20185;-84
2023/04/19 00:27:40;;;;;;;17.93;15.70;;;12.00;1.00;;;;;;5056627;28;20181;-81
2023/04/19 00:30:06;;;;;;;20.27;16.00;;;12.00;1.00;;;;;;5048328;28;20482;-80
2023/04/19 00:32:34;;;;;;;18.93;16.67;;;11.90;1.00;;;;;;5057561;28;20215;-83
2023/04/19 00:35:00;;;;;;;19.00;16.07;;;11.90;1.00;;;;;;5047442;28;20440;-82
2023/04/19 00:37:28;;;;;;;18.90;16.10;;;11.90;1.00;;;;;;5056797;28;20446;-83
2023/04/19 00:39:56;;;;;;;20.90;17.30;;;11.90;1.00;;;;;;5051342;28;20197;-83
2023/04/19 00:42:22;;;;;;;20.53;16.53;;;11.90;1.00;;;;;;5050551;28;20458;-82
2023/04/19 00:44:47;;;;;;;20.10;16.87;;;11.90;1.00;;;;;;5055497;28;20492;-80
2023/04/19 00:47:13;;;;;;;18.67;16.67;;;11.90;1.00;;;;;;5052595;28;20186;-81
2023/04/19 00:49:39;;;;;;;23.50;17.10;;;11.90;1.00;;;;;;5056866;28;20186;-82
2023/04/19 00:52:06;;;;;;;24.67;18.53;;;11.90;1.00;;;;;;5053392;28;20909;-82
2023/04/19 00:54:33;;;;;;;19.10;15.50;;;11.90;1.00;;;;;;5053970;28;20459;-83
2023/04/19 00:56:58;;;;;;;22.40;16.00;;;11.90;1.00;;;;;;5057499;28;20431;-84
2023/04/19 00:59:26;;;;;;;19.37;17.30;;;11.90;1.00;;;;;;5059342;28;20527;-81
2023/04/19 01:01:52;;;;;;;24.13;17.57;;;11.90;1.00;;;;;;5045148;28;20189;-80
2023/04/19 01:04:18;;;;;;;20.33;15.50;;;11.80;1.00;;;;;;5055641;28;20456;-80
2023/04/19 01:06:43;;;;;;;18.13;15.13;;;11.80;4.50;;;;;;5051673;28;20253;-80
2023/04/19 01:09:09;;;;;;;21.80;17.80;;;11.80;9.80;;;;;;5056273;28;20197;-80
2023/04/19 01:11:35;;;;;;;17.93;15.50;;;11.80;26.10;;;;;;5057969;28;20193;-82
2023/04/19 01:14:00;;;;;;;21.70;17.47;;;11.80;23.60;;;;;;5044915;28;20216;-81
2023/04/19 01:16:27;;;;;;;22.90;16.80;;;11.80;24.30;;;;;;5053312;28;20697;-80
2023/04/19 01:18:57;;;;;;;24.00;18.10;;;11.80;24.20;;;;;;5058316;28;20654;-81
2023/04/19 01:21:23;;;;;;;18.97;16.20;;;11.80;36.40;;;;;;5058421;28;20471;-80
2023/04/19 01:23:49;;;;;;;19.90;15.70;;;11.80;59.80;;;;;;5049279;28;20452;-82
2023/04/19 01:26:17;;;;;;;20.80;16.30;;;11.80;94.80;;;;;;5054184;28;20188;-80
2023/04/19 01:28:43;;;;;;;21.20;16.83;;;11.80;99.90;;;;;;5049764;28;20873;-83
2023/04/19 01:31:11;;;;;;;21.23;16.00;;;11.80;99.90;;;;;;5056949;28;20447;-83
2023/04/19 01:33:37;;;;;;;19.67;17.57;;;11.80;99.90;;;;;;5057174;28;20596;-82
2023/04/19 01:36:08;;;;;;;22.80;17.77;;;11.90;99.90;;;;;;5049742;28;20431;-83
2023/04/19 01:38:36;;;;;;;19.77;17.07;;;11.90;99.90;;;;;;5052542;28;20670;-83
2023/04/19 01:41:01;;;;;;;20.90;16.20;;;11.80;99.90;;;;;;5053850;28;20486;-85
2023/04/19 01:43:27;;;;;;;20.30;16.03;;;11.90;99.90;;;;;;5074261;28;20459;-81
2023/04/19 01:45:52;;;;;;;20.60;16.80;;;11.80;99.90;;;;;;5068356;28;20181;-79
2023/04/19 01:48:20;;;;;;;20.83;17.40;;;11.80;99.90;;;;;;5058140;28;20223;-81
2023/04/19 01:50:48;;;;;;;19.60;15.93;;;11.80;99.90;;;;;;5052844;28;20585;-83
2023/04/19 01:53:14;;;;;;;21.13;16.93;;;11.80;99.90;;;;;;5053779;28;20478;-83
2023/04/19 01:55:42;;;;;;;20.93;17.87;;;11.80;99.90;;;;;;5049039;28;20436;-83
2023/04/19 01:58:08;;;;;;;35.53;18.10;;;11.70;99.90;;;;;;5054876;28;20330;-84
2023/04/19 02:00:34;;;;;;;25.10;17.60;;;11.70;99.90;;;;;;5047689;28;20495;-84
2023/04/19 02:03:00;;;;;;;23.67;18.30;;;11.70;99.90;;;;;;5064933;28;21025;-84
2023/04/19 02:05:25;;;;;;;22.17;17.70;;;11.70;99.90;;;;;;5054670;28;20432;-84
2023/04/19 02:07:51;;;;;;;20.07;16.80;;;11.70;99.90;;;;;;5048743;28;20543;-83
2023/04/19 02:10:17;;;;;;;23.03;16.40;;;11.60;99.90;;;;;;5044082;28;20208;-83
2023/04/19 02:12:42;;;;;;;23.63;19.43;;;11.60;1.00;;;;;;5043780;28;20217;-83
2023/04/19 02:15:09;;;;;;;23.30;18.60;;;11.60;1.00;;;;;;5051801;28;20216;-82
2023/04/19 02:17:37;;;;;;;22.10;17.80;;;11.60;1.00;;;;;;5052055;28;20281;-84
2023/04/19 02:20:04;;;;;;;23.43;17.60;;;11.60;1.00;;;;;;5054779;28;20468;-82
2023/04/19 02:22:32;;;;;;;26.63;18.97;;;11.60;1.00;;;;;;5047243;28;20459;-81
2023/04/19 02:24:58;;;;;;;22.83;17.20;;;11.60;1.00;;;;;;5053246;28;20486;-83
2023/04/19 02:27:24;;;;;;;20.40;17.30;;;11.50;1.00;;;;;;5062027;28;20466;-84
2023/04/19 02:29:50;;;;;;;24.53;18.43;;;11.50;1.00;;;;;;5052846;28;20440;-84
2023/04/19 02:32:16;;;;;;;22.87;18.73;;;11.40;1.00;;;;;;5052960;28;20233;-84
2023/04/19 02:34:43;;;;;;;24.87;18.67;;;11.40;1.00;;;;;;5052279;28;20448;-83
2023/04/19 02:37:09;;;;;;;23.93;17.07;;;11.30;1.00;;;;;;5053966;28;20246;-84
2023/04/19 02:39:35;;;;;;;22.90;17.97;;;11.30;1.00;;;;;;5055161;28;20495;-84
2023/04/19 02:42:01;;;;;;;23.50;20.10;;;11.30;1.00;;;;;;5053935;28;20659;-83
2023/04/19 02:44:26;;;;;;;24.23;18.53;;;11.20;1.00;;;;;;5050002;28;20214;-82
2023/04/19 02:46:52;;;;;;;24.57;18.43;;;11.20;16.80;;;;;;5049742;28;20182;-83
2023/04/19 02:49:19;;;;;;;23.13;18.13;;;11.10;99.90;;;;;;5049754;28;20200;-83
2023/04/19 02:51:45;;;;;;;24.77;19.57;;;11.10;99.90;;;;;;5049154;28;20490;-82
2023/04/19 02:54:11;;;;;;;25.47;18.53;;;11.00;1.00;;;;;;5049988;28;20839;-82
2023/04/19 02:56:37;;;;;;;27.90;19.40;;;11.00;1.00;;;;;;5054936;28;20189;-81
2023/04/19 02:59:04;;;;;;;31.70;20.50;;;11.00;99.90;;;;;;5051077;28;20456;-81
2023/04/19 03:01:30;;;;;;;25.00;19.47;;;11.00;99.90;;;;;;5049787;28;20682;-80
2023/04/19 03:03:55;;;;;;;26.40;18.60;;;11.00;1.00;;;;;;5039649;28;20508;-84
2023/04/19 03:06:21;;;;;;;26.47;20.63;;;11.10;1.00;;;;;;5043495;28;20524;-81
2023/04/19 03:08:47;;;;;;;25.13;18.07;;;11.10;1.00;;;;;;5047286;28;20457;-81
2023/04/19 03:11:15;;;;;;;23.40;18.47;;;11.10;1.00;;;;;;5046902;28;20221;-80
2023/04/19 03:13:40;;;;;;;24.03;19.97;;;11.20;1.50;;;;;;5048971;28;20232;-84
2023/04/19 03:16:06;;;;;;;26.13;19.47;;;11.20;1.00;;;;;;5047416;28;20449;-81
2023/04/19 03:18:32;;;;;;;27.70;19.50;;;11.20;33.70;;;;;;5044448;28;20178;-83
2023/04/19 03:20:58;;;;;;;26.20;19.20;;;11.30;1.00;;;;;;5049501;28;20447;-83
2023/04/19 03:23:25;;;;;;;23.47;18.27;;;11.30;1.00;;;;;;5049758;28;20460;-84
2023/04/19 03:25:51;;;;;;;25.23;18.73;;;11.30;86.50;;;;;;5052277;28;20214;-84
2023/04/19 03:28:16;;;;;;;25.97;19.43;;;11.40;60.70;;;;;;5045953;28;20436;-83
2023/04/19 03:30:42;;;;;;;24.20;18.63;;;11.40;99.80;;;;;;5050384;28;20313;-84
2023/04/19 03:33:07;;;;;;;21.73;17.50;;;11.40;99.90;;;;;;5049925;28;20206;-84
2023/04/19 03:35:33;;;;;;;22.27;17.37;;;11.40;99.90;;;;;;5070940;28;20185;-84
2023/04/19 03:37:58;;;;;;;26.27;18.70;;;11.40;99.90;;;;;;5066971;28;20227;-82
2023/04/19 03:40:24;;;;;;;22.90;18.50;;;11.40;1.00;;;;;;5048579;28;20213;-82
2023/04/19 03:42:49;;;;;;;24.23;19.07;;;11.40;1.00;;;;;;5056260;28;20197;-81
2023/04/19 03:45:15;;;;;;;19.87;17.10;;;11.40;1.00;;;;;;5054854;28;20189;-81
2023/04/19 03:47:41;;;;;;;24.87;18.47;;;11.40;1.00;;;;;;5048743;28;20194;-83
2023/04/19 03:50:07;;;;;;;23.70;19.40;;;11.40;1.00;;;;;;5059345;28;20256;-85
2023/04/19 03:52:32;;;;;;;21.77;19.23;;;11.50;1.00;;;;;;5058476;28;20205;-82
2023/04/19 03:54:58;;;;;;;20.40;16.80;;;11.50;1.00;;;;;;5054870;28;20577;-82
2023/04/19 03:57:23;;;;;;;21.43;17.47;;;11.50;1.00;;;;;;5051909;28;20714;-81
2023/04/19 03:59:49;;;;;;;19.83;16.67;;;11.50;1.00;;;;;;5050432;28;20219;-82
2023/04/19 04:02:14;;;;;;;19.93;15.73;;;11.50;1.00;;;;;;5056927;28;20299;-81
2023/04/19 04:04:40;;;;;;;24.53;17.67;;;11.50;99.90;;;;;;5057466;28;20207;-85
2023/04/19 04:07:05;;;;;;;18.80;16.10;;;11.50;99.90;;;;;;5060585;28;20194;-83
2023/04/19 04:09:31;;;;;;;19.27;17.00;;;11.60;99.90;;;;;;5044096;28;20230;-84
2023/04/19 04:11:56;;;;;;;20.80;16.97;;;11.60;91.90;;;;;;5052772;28;20243;-85
2023/04/19 04:14:23;;;;;;;24.20;17.30;;;11.60;1.00;;;;;;5056163;28;20182;-84
2023/04/19 04:16:48;;;;;;;23.67;18.40;;;11.60;1.00;;;;;;5058008;28;20193;-84
2023/04/19 04:19:14;;;;;;;22.53;17.13;;;11.70;1.00;;;;;;5056838;28;20495;-84
2023/04/19 04:21:39;;;;;;;21.97;16.73;;;11.70;1.00;;;;;;5056125;28;20184;-82
2023/04/19 04:24:06;;;;;;;20.87;18.33;;;11.70;1.00;;;;;;5058473;28;20205;-84
2023/04/19 04:26:32;;;;;;;24.77;18.27;;;11.70;99.90;;;;;;5060358;28;20667;-82
2023/04/19 04:29:00;;;;;;;30.40;19.10;;;11.70;99.90;;;;;;5058061;28;20976;-84
2023/04/19 04:31:26;;;;;;;22.33;18.20;;;11.70;99.90;;;;;;5054155;28;20515;-84
2023/04/19 04:33:53;;;;;;;24.80;16.93;;;11.70;99.90;;;;;;5055943;28;21062;-84
2023/04/19 04:36:22;;;;;;;18.90;16.47;;;11.70;99.90;;;;;;5055820;28;20420;-85
2023/04/19 04:38:48;;;;;;;23.07;17.53;;;11.70;99.90;;;;;;5052509;28;20459;-83
2023/04/19 04:41:13;;;;;;;22.90;18.50;;;11.70;99.90;;;;;;5048969;28;20421;-84
2023/04/19 04:43:39;;;;;;;23.20;17.90;;;11.70;99.90;;;;;;5042958;28;20278;-83
2023/04/19 04:46:04;;;;;;;21.70;16.17;;;11.80;93.40;;;;;;5042206;28;20182;-83
2023/04/19 04:48:30;;;;;;;22.80;18.47;;;11.70;1.00;;;;;;5047894;28;20185;-83
2023/04/19 04:50:56;;;;;;;19.50;15.00;;;11.70;1.00;;;;;;5053205;28;20182;-84
2023/04/19 04:53:25;;;;;;;23.60;18.07;;;11.80;1.00;;;;;;5041904;28;20226;-84
2023/04/19 04:55:56;;;;;;;19.90;16.10;;;11.80;1.00;;;;;;5055704;28;20429;-84
2023/04/19 04:58:21;;;;;;;21.37;16.47;;;11.80;1.00;;;;;;5048528;28;20424;-84
2023/04/19 05:00:47;;;;;;;20.00;15.90;;;11.80;1.00;;;;;;5043033;28;21199;-83
2023/04/19 05:03:13;;;;;;;21.30;15.40;;;11.80;1.00;;;;;;5042289;28;20292;-82
2023/04/19 05:05:39;;;;;;;21.37;16.87;;;11.90;1.00;;;;;;5049249;28;20435;-84
2023/04/19 05:08:05;;;;;;;18.03;14.83;;;11.80;1.00;;;;;;5054615;28;20533;-83
2023/04/19 05:10:30;;;;;;;19.43;15.57;;;11.90;99.90;;;;;;5059357;28;20213;-85
2023/04/19 05:12:56;;;;;;;19.00;15.00;;;11.90;99.90;;;;;;5061482;28;21102;-85
2023/04/19 05:15:22;;;;;;;21.00;15.90;;;11.80;99.90;;;;;;5062325;28;20201;-84
2023/04/19 05:17:47;;;;;;;18.70;14.80;;;11.80;99.90;;;;;;5074328;28;20181;-84
2023/04/19 05:20:13;;;;;;;22.30;14.60;;;11.90;99.90;;;;;;5068848;28;20204;-83
2023/04/19 05:22:39;;;;;;;19.97;13.73;;;11.90;99.90;;;;;;5052767;28;20186;-83
2023/04/19 05:25:05;;;;;;;20.70;15.60;;;11.90;99.90;;;;;;5053751;28;20921;-84
2023/04/19 05:27:31;;;;;;;15.77;13.00;;;11.90;99.90;;;;;;5052303;28;20576;-83
2023/04/19 05:29:56;;;;;;;14.67;12.23;;;11.90;99.90;;;;;;5052817;28;20493;-83
2023/04/19 05:32:22;;;;;;;18.23;13.30;;;11.90;99.90;;;;;;5054255;28;20209;-84
2023/04/19 05:34:47;;;;;;;16.17;12.47;;;11.90;96.10;;;;;;5052342;28;20228;-84
2023/04/19 05:37:13;;;;;;;17.83;11.77;;;11.90;19.70;;;;;;5048836;28;20177;-83
2023/04/19 05:39:38;;;;;;;14.10;11.47;;;12.00;1.00;;;;;;5046100;28;20592;-83
2023/04/19 05:42:04;;;;;;;14.90;11.67;;;11.90;1.00;;;;;;5042402;28;20544;-83
2023/04/19 05:44:29;;;;;;;15.90;11.60;;;12.00;1.00;;;;;;5043638;28;20372;-84
2023/04/19 05:46:55;;;;;;;13.20;10.73;;;12.10;1.00;;;;;;5053150;28;20196;-84
2023/04/19 05:49:20;;;;;;;14.30;11.40;;;12.10;1.00;;;;;;5052147;28;21228;-83
2023/04/19 05:51:46;;;;;;;12.83;10.40;;;12.10;1.00;;;;;;5052164;28;20174;-83
2023/04/19 05:54:13;;;;;;;15.50;12.27;;;12.10;1.00;;;;;;5053691;28;20224;-84
2023/04/19 05:56:38;;;;;;;14.73;9.47;;;12.10;99.90;;;;;;5047621;28;20173;-84
2023/04/19 05:59:05;;;;;;;10.83;9.60;;;12.20;99.90;;;;;;5053501;28;20446;-83
2023/04/19 06:01:31;;;;;;;11.20;9.50;;;12.20;99.90;;;;;;5049358;28;20216;-83
2023/04/19 06:03:56;;;;;;;13.93;9.23;;;12.20;99.90;;;;;;5051151;28;20464;-82
2023/04/19 06:06:22;;;;;;;11.87;8.70;;;12.30;99.90;;;;;;5047287;28;20213;-83
2023/04/19 06:08:48;;;;;;;9.70;7.80;;;12.40;99.90;;;;;;5049993;28;20225;-83
2023/04/19 06:11:14;;;;;;;14.20;8.77;;;12.40;97.50;;;;;;5054077;28;20459;-83
2023/04/19 06:13:40;;;;;;;9.50;7.77;;;12.50;1.70;;;;;;5056351;28;20485;-83
2023/04/19 06:16:06;;;;;;;11.33;7.97;;;12.50;1.00;;;;;;5055177;28;20206;-83
2023/04/19 06:18:32;;;;;;;10.40;8.07;;;12.60;1.00;;;;;;5056483;28;20717;-83
2023/04/19 06:20:57;;;;;;;9.93;7.30;;;12.70;1.00;;;;;;5046969;28;20633;-83
2023/04/19 06:23:24;;;;;;;10.23;7.80;;;12.80;1.00;;;;;;5051647;28;20213;-84
2023/04/19 06:25:50;;;;;;;8.43;7.07;;;12.90;1.00;;;;;;5048024;28;20178;-84
2023/04/19 06:28:15;;;;;;;9.33;7.47;;;12.90;1.00;;;;;;5047894;28;20807;-83
2023/04/19 06:30:41;;;;;;;11.00;6.93;;;13.00;1.00;;;;;;5049341;28;20300;-84
2023/04/19 06:33:06;;;;;;;12.50;7.00;;;13.10;1.00;;;;;;5049276;28;20201;-83
2023/04/19 06:35:32;;;;;;;9.63;7.23;;;13.10;99.90;;;;;;5049118;28;20186;-84
2023/04/19 06:37:58;;;;;;;8.27;6.67;;;13.30;99.90;;;;;;5052638;28;20186;-83
2023/04/19 06:40:25;;;;;;;9.07;7.03;;;13.60;99.90;;;;;;5052489;28;20494;-84
2023/04/19 06:42:51;;;;;;;7.80;6.40;;;14.30;99.90;;;;;;5053176;28;20547;-82
2023/04/19 06:45:17;;;;;;;7.23;6.27;;;14.80;99.90;;;;;;5051553;28;20547;-83
2023/04/19 06:47:42;;;;;;;7.23;5.70;;;16.10;99.90;;;;;;5049807;28;21002;-84
2023/04/19 06:50:09;;;;;;;8.90;6.23;;;21.10;99.90;;;;;;5049491;28;20240;-82
2023/04/19 06:52:35;;;;;;;8.83;6.47;;;21.50;99.90;;;;;;5041060;28;20196;-83
2023/04/19 06:55:00;;;;;;;8.10;5.50;;;24.00;99.90;;;;;;5051826;28;20963;-84
2023/04/19 06:57:26;;;;;;;6.40;5.80;;;26.50;99.90;;;;;;5049533;28;20251;-85
2023/04/19 06:59:53;;;;;;;7.23;5.73;;;30.90;99.90;;;;;;5048218;28;20536;-85
2023/04/19 07:02:19;;;;;;;5.77;5.17;;;29.80;99.90;;;;;;5047002;28;20235;-84
2023/04/19 07:04:46;;;;;;;9.93;5.97;;;29.40;99.90;;;;;;5045364;28;20778;-85
2023/04/19 07:07:11;;;;;;;7.00;6.30;;;31.70;99.90;;;;;;5038931;28;20409;-84
2023/04/19 07:09:37;;;;;;;6.37;5.77;;;32.50;99.90;;;;;;5037064;28;20541;-84
2023/04/19 07:12:04;;;;;;;5.30;4.80;;;34.90;99.90;;;;;;5051280;28;20214;-81
2023/04/19 07:14:30;;;;;;;6.20;5.60;;;37.40;99.90;;;;;;5042640;28;20431;-83
2023/04/19 07:16:56;;;;;;;5.83;5.23;;;38.30;99.90;;;;;;5049227;28;20438;-82
2023/04/19 07:19:21;;;;;;;5.93;5.27;;;38.30;99.90;;;;;;5046927;28;20637;-82
2023/04/19 07:21:47;;;;;;;5.93;5.07;;;37.90;99.90;;;;;;5038731;28;20284;-83
2023/04/19 07:24:12;;;;;;;7.17;5.70;;;39.20;99.90;;;;;;5042864;28;20220;-82
2023/04/19 07:26:38;;;;;;;5.43;5.03;;;39.90;99.90;;;;;;5049208;28;20188;-82
2023/04/19 07:29:03;;;;;;;5.40;4.90;;;40.60;99.90;;;;;;5048858;28;20189;-82
2023/04/19 07:31:29;;;;;;;5.27;4.77;;;41.90;99.90;;;;;;5045478;28;20198;-83
2023/04/19 07:33:55;;;;;;;5.53;5.00;;;43.80;99.90;;;;;;5044659;28;20206;-83
2023/04/19 07:36:20;;;;;;;6.10;4.60;;;45.10;99.90;;;;;;5047266;28;20185;-83
2023/04/19 07:38:46;;;;;;;8.73;4.67;;;45.90;99.90;;;;;;5043468;28;20185;-83
2023/04/19 07:41:11;;;;;;;8.73;5.10;;;46.50;99.90;;;;;;5046518;28;20246;-83
2023/04/19 07:43:37;;;;;;;5.43;4.60;;;46.80;99.90;;;;;;5041332;28;20196;-83
2023/04/19 07:46:09;;;;;;;5.10;4.60;;;46.80;99.90;;;;;;5048930;28;20275;-83
2023/04/19 07:48:35;;;;;;;5.83;5.30;;;47.00;99.90;;;;;;5047684;28;20182;-83
2023/04/19 07:51:12;;;;;;;5.53;5.03;;;46.30;99.90;;;;;;5033218;28;20938;-84
2023/04/19 07:53:38;;;;;;;5.60;5.13;;;46.00;99.90;;;;;;5040056;28;21067;-83
2023/04/19 07:56:05;;;;;;;5.53;5.10;;;46.00;99.90;;;;;;5043583;28;20435;-83
2023/04/19 07:58:31;;;;;;;6.17;5.67;;;45.70;99.30;;;;;;5039155;28;20882;-83
2023/04/19 08:00:56;;;;;;;5.83;5.27;;;45.10;96.60;;;;;;5070102;28;20465;-83
2023/04/19 08:03:22;;;;;;;6.03;5.53;;;44.50;93.60;;;;;;5041711;28;20213;-83
2023/04/19 08:05:47;;;;;;;6.50;5.13;;;44.50;92.90;;;;;;5040291;28;20197;-83
2023/04/19 08:08:13;;;;;;;7.70;5.60;;;44.80;92.30;;;;;;5056911;28;20260;-83
2023/04/19 08:10:38;;;;;;;5.90;5.40;;;45.20;91.40;;;;;;5047428;28;20231;-83
2023/04/19 08:13:04;;;;;;;6.90;6.30;;;45.40;90.20;;;;;;5060730;28;20208;-84
2023/04/19 08:15:32;;;;;;;5.90;5.33;;;45.50;89.10;;;;;;5070911;28;20186;-81
2023/04/19 08:17:57;;;;;;;6.10;5.60;;;45.90;87.50;;;;;;5044853;28;20205;-84
2023/04/19 08:20:23;;;;;;;8.30;5.30;;;46.00;86.50;;;;;;5053825;28;20456;-83
2023/04/19 08:22:48;;;;;;;6.60;6.00;;;45.60;82.50;;;;;;5045875;28;20281;-83
2023/04/19 08:25:14;;;;;;;6.60;5.80;;;45.20;79.80;;;;;;5054346;28;20554;-83
2023/04/19 08:27:39;;;;;;;5.50;5.10;;;45.00;77.50;;;;;;5044824;28;20185;-83
2023/04/19 08:30:06;;;;;;;6.03;5.53;;;45.10;77.50;;;;;;5056869;28;20192;-84
2023/04/19 08:32:32;;;;;;;7.20;5.70;;;45.00;75.30;;;;;;5045852;28;20218;-82
2023/04/19 08:34:59;;;;;;;5.70;5.20;;;44.90;74.60;;;;;;5057303;28;20444;-84
2023/04/19 08:37:25;;;;;;;6.53;6.03;;;44.60;71.00;;;;;;5049950;28;20186;-83
2023/04/19 08:39:51;;;;;;;6.47;5.87;;;44.40;69.50;;;;;;5044943;28;20462;-83
2023/04/19 08:42:17;;;;;;;5.67;5.17;;;44.10;68.20;;;;;;5047032;28;20198;-83
2023/04/19 08:44:44;;;;;;;8.13;6.30;;;43.80;65.70;;;;;;5048545;28;20822;-84
2023/04/19 08:47:11;;;;;;;5.73;5.10;;;43.50;63.10;;;;;;5048979;28;20409;-83
2023/04/19 08:49:38;;;;;;;7.80;6.00;;;43.50;64.80;;;;;;5071236;28;20483;-83
2023/04/19 08:52:05;;;;;;;6.30;5.57;;;43.60;63.80;;;;;;5048113;28;20501;-83
2023/04/19 08:54:31;;;;;;;6.13;5.37;;;43.50;63.20;;;;;;5060306;28;20416;-83
2023/04/19 08:57:00;;;;;;;7.07;5.57;;;43.50;61.40;;;;;;5066600;28;20452;-82
2023/04/19 08:59:27;;;;;;;7.53;5.30;;;43.30;59.80;;;;;;5070108;28;20177;-83
2023/04/19 09:01:55;;;;;;;10.33;5.53;;;43.00;58.80;;;;;;5064822;28;20419;-85
2023/04/19 09:04:21;;;;;;;5.23;4.73;;;42.70;58.50;;;;;;5067766;28;21042;-83
2023/04/19 09:06:47;;;;;;;6.73;6.13;;;42.70;58.30;;;;;;5060768;28;20428;-83
2023/04/19 09:09:27;;;;;;;6.07;5.03;;;42.90;58.10;;;;;;5069515;28;20528;-83
2023/04/19 09:11:53;;;;;;;4.87;4.47;;;42.70;57.30;;;;;;5069057;28;20211;-84
2023/04/19 09:14:20;;;;;;;5.80;5.20;;;42.50;56.10;;;;;;5068712;28;20456;-83
2023/04/19 09:16:46;;;;;;;5.70;4.67;;;42.20;55.20;;;;;;5061530;28;20176;-83
2023/04/19 09:19:12;;;;;;;4.87;4.47;;;41.80;54.50;;;;;;5066764;28;20448;-83
2023/04/19 09:21:38;;;;;;;6.60;4.80;;;41.50;53.10;;;;;;5070417;28;20205;-83
2023/04/19 09:24:05;;;;;;;5.77;5.07;;;41.30;53.60;;;;;;5069456;28;20250;-84
2023/04/19 09:26:31;;;;;;;6.87;4.60;;;41.00;52.30;;;;;;5064359;28;20507;-83
2023/04/19 09:28:57;;;;;;;5.80;4.30;;;40.80;51.90;;;;;;5082992;28;20452;-84
2023/04/19 09:31:24;;;;;;;5.20;4.70;;;40.50;50.80;;;;;;5062201;28;20428;-83
2023/04/19 09:33:50;;;;;;;7.93;5.10;;;40.20;50.00;;;;;;5064083;28;20235;-84
2023/04/19 09:36:30;;;;;;;6.60;4.93;;;39.70;48.70;;;;;;5065625;28;20467;-82
2023/04/19 09:38:56;;;;;;;6.10;4.77;;;39.70;48.90;;;;;;5068996;28;20174;-83
2023/04/19 09:41:22;;;;;;;5.23;4.17;;;39.60;61.50;;;;;;5067688;28;20470;-83
2023/04/19 09:43:48;;;;;;;5.50;4.97;;;39.50;48.50;;;;;;5070058;28;20456;-83
2023/04/19 09:46:33;;;;;;;4.60;4.00;;;39.40;47.90;;;;;;5061698;28;20501;-83
2023/04/19 09:49:28;;;;;;;9.00;4.80;;;38.90;46.40;;;;;;5065359;28;20166;-84
2023/04/19 09:51:55;;;;;;;4.60;4.07;;;38.50;45.60;;;;;;5068204;28;20453;-83
2023/04/19 09:54:27;;;;;;;5.40;4.07;;;38.30;45.90;;;;;;5064392;28;20433;-83
2023/04/19 09:56:53;;;;;;;4.20;3.80;;;38.40;45.70;;;;;;5063749;28;20474;-84
2023/04/19 09:59:18;;;;;;;4.40;4.00;;;38.20;45.60;;;;;;5065830;28;20480;-82
2023/04/19 10:01:46;;;;;;;6.47;4.30;;;37.80;44.30;;;;;;5064698;28;20229;-83
2023/04/19 10:04:21;;;;;;;6.00;4.47;;;37.30;43.20;;;;;;5068749;28;20214;-83
2023/04/19 10:06:49;;;;;;;5.43;4.60;;;35.90;39.70;;;;;;5075283;28;20462;-83
2023/04/19 10:09:16;;;;;;;4.63;4.07;;;34.80;54.10;;;;;;5065320;28;20440;-83
2023/04/19 10:11:46;;;;;;;6.07;4.47;;;34.20;48.40;;;;;;5073772;28;20429;-83
2023/04/19 10:14:14;;;;;;;7.13;3.97;;;33.50;39.60;;;;;;5067336;28;20461;-83
2023/04/19 10:16:40;;;;;;;5.20;4.20;;;33.80;46.80;;;;;;5070921;28;20471;-84
2023/04/19 10:19:09;;;;;;;3.73;3.43;;;34.20;45.90;;;;;;5074632;28;20452;-83
2023/04/19 10:21:35;;;;;;;6.53;4.00;;;34.40;45.20;;;;;;5065606;28;20162;-83
2023/04/19 10:24:01;;;;;;;8.00;4.27;;;34.90;46.20;;;;;;5068122;28;20466;-83
2023/04/19 10:26:27;;;;;;;3.67;3.23;;;34.80;44.80;;;;;;5068607;28;20432;-83
2023/04/19 10:28:55;;;;;;;4.03;3.63;;;34.50;44.30;;;;;;5062756;28;20439;-83
2023/04/19 10:31:22;;;;;;;4.57;3.30;;;34.50;44.10;;;;;;5064579;28;20443;-83
2023/04/19 10:33:50;;;;;;;3.90;3.50;;;34.40;43.80;;;;;;5070488;28;20472;-84
2023/04/19 10:36:16;;;;;;;5.73;3.43;;;34.20;42.70;;;;;;5065399;28;20534;-83
2023/04/19 10:38:54;;;;;;;4.93;3.00;;;34.10;42.60;;;;;;5066572;28;20428;-83
2023/04/19 10:41:21;;;;;;;4.27;3.40;;;34.00;42.20;;;;;;5061472;28;20427;-85
2023/04/19 10:44:08;;;;;;;4.63;3.37;;;34.10;42.20;;;;;;5070325;28;20466;-84
2023/04/19 10:46:34;;;;;;;3.60;3.30;;;34.00;42.50;;;;;;5070865;28;20419;-83
2023/04/19 10:49:04;;;;;;;4.63;2.80;;;33.60;40.50;;;;;;5067337;28;20452;-85
2023/04/19 10:51:37;;;;;;;3.13;2.83;;;33.70;41.40;;;;;;5066871;28;20481;-84
2023/04/19 10:54:06;;;;;;;7.13;3.40;;;33.40;40.10;;;;;;5060073;28;20472;-84
2023/04/19 10:56:31;;;;;;;3.60;2.67;;;33.20;40.20;;;;;;5066662;28;20492;-83
2023/04/19 10:59:04;;;;;;;4.77;3.00;;;33.10;39.20;;;;;;5060908;28;20440;-84
2023/04/19 11:01:34;;;;;;;2.63;2.43;;;32.30;36.90;;;;;;5069186;28;20170;-84
2023/04/19 11:03:59;;;;;;;4.30;2.80;;;31.30;32.60;;;;;;5062736;28;20452;-85
2023/04/19 11:06:26;;;;;;;4.20;3.30;;;30.80;32.90;;;;;;5074059;28;20438;-84
2023/04/19 11:08:53;;;;;;;3.97;2.73;;;30.50;32.50;;;;;;5070230;28;20184;-84
2023/04/19 11:11:24;;;;;;;3.23;2.60;;;30.70;33.50;;;;;;5063875;28;20447;-85
2023/04/19 11:13:49;;;;;;;6.67;2.40;;;31.00;35.60;;;;;;5068116;28;20514;-86
2023/04/19 11:16:15;;;;;;;3.07;2.47;;;31.10;36.20;;;;;;5070999;28;20444;-86
2023/04/19 11:18:42;;;;;;;3.90;2.60;;;31.40;37.80;;;;;;5062606;28;20232;-85
2023/04/19 11:21:13;;;;;;;2.90;2.47;;;31.60;38.40;;;;;;5067394;28;20201;-83
2023/04/19 11:23:38;;;;;;;3.40;2.70;;;31.60;36.40;;;;;;5067526;28;20456;-83
2023/04/19 11:26:04;;;;;;;4.00;2.40;;;31.60;36.80;;;;;;5062723;28;20479;-83
2023/04/19 11:28:32;;;;;;;6.67;2.77;;;31.50;36.00;;;;;;5061573;28;20173;-83
2023/04/19 11:30:58;;;;;;;2.87;2.20;;;31.60;36.40;;;;;;5065002;28;20442;-83
2023/04/19 11:33:24;;;;;;;2.47;1.80;;;31.70;36.40;;;;;;5081587;28;20868;-83
2023/04/19 11:35:50;;;;;;;2.13;1.90;;;31.60;36.10;;;;;;5073639;28;20423;-84
2023/04/19 11:38:16;;;;;;;3.50;2.10;;;31.50;35.10;;;;;;5072814;28;20443;-83
2023/04/19 11:40:41;;;;;;;2.63;2.33;;;31.40;35.20;;;;;;5071930;28;20233;-83
2023/04/19 11:43:07;;;;;;;4.00;2.20;;;31.30;46.70;;;;;;5071720;28;20216;-83
2023/04/19 11:45:35;;;;;;;2.30;2.10;;;31.20;35.00;;;;;;5067566;28;20193;-83
2023/04/19 11:48:02;;;;;;;5.17;2.40;;;31.00;33.90;;;;;;5067899;28;20248;-84
2023/04/19 11:50:35;;;;;;;2.93;2.20;;;30.90;33.50;;;;;;5079526;28;20517;-83
2023/04/19 11:53:14;;;;;;;6.70;3.17;;;30.70;32.90;;;;;;5084017;28;20953;-82
2023/04/19 11:55:45;;;;;;;6.60;2.90;;;30.40;32.20;;;;;;5077559;28;20462;-82
2023/04/19 11:58:24;;;;;;;3.70;2.73;;;29.90;30.00;;;;;;5068606;28;21042;-82
2023/04/19 12:00:50;;;;;;;4.43;2.10;;;29.40;29.80;;;;;;5082082;28;20403;-82
2023/04/19 12:03:19;;;;;;;3.57;2.40;;;29.20;94.70;;;;;;5072857;28;20447;-83
2023/04/19 12:05:56;;;;;;;6.43;2.80;;;29.20;33.90;;;;;;5075073;28;20214;-83
2023/04/19 12:08:32;;;;;;;4.57;3.17;;;29.10;32.40;;;;;;5074785;28;20436;-84
2023/04/19 12:10:59;;;;;;;4.03;2.90;;;29.00;32.70;;;;;;5068458;28;20467;-83
2023/04/19 12:13:25;;;;;;;4.50;2.47;;;28.90;33.00;;;;;;5076149;28;20466;-83
2023/04/19 12:15:51;;;;;;;2.60;2.17;;;28.80;33.90;;;;;;5068483;28;20957;-83
2023/04/19 12:18:16;;;;;;;5.23;2.90;;;29.20;36.70;;;;;;5065581;28;20443;-83
2023/04/19 12:20:45;;;;;;;2.87;2.67;;;29.60;40.00;;;;;;5069331;28;20440;-83
2023/04/19 12:23:12;;;;;;;3.43;2.60;;;29.80;40.30;;;;;;5070921;28;20220;-83
2023/04/19 12:25:39;;;;;;;3.60;2.90;;;29.90;40.40;;;;;;5070909;28;20461;-83
2023/04/19 12:28:05;;;;;;;4.00;2.73;;;29.90;41.70;;;;;;5059096;28;20454;-83
2023/04/19 12:30:31;;;;;;;2.73;2.03;;;29.70;44.40;;;;;;5070825;28;20471;-84
2023/04/19 12:32:58;;;;;;;2.70;2.43;;;29.50;43.20;;;;;;5072129;28;20260;-83
2023/04/19 12:35:25;;;;;;;3.97;2.87;;;29.60;43.40;;;;;;5061314;28;20421;-83
2023/04/19 12:37:52;;;;;;;5.37;3.20;;;29.50;44.60;;;;;;5075253;28;20419;-84